Time;durP1;ratioP1;P1;durP2;ratioP2;P2;SDS_P1;SDS_P2;PMS_P1;PMS_P2;Temp;Humidity;BMP_temperature;BMP_pressure;BME280_temperature;BME280_humidity;BME280_pressure;Samples;Min_cycle;Max_cycle;Signal;HPM_P1;HPM_P2
2022/06/05 00:02:29;;;;;;;1.48;1.38;;;;;;;23.01;42.99;101114.38;5142438;28;19949;-80
2022/06/05 00:05:26;;;;;;;1.95;1.23;;;;;;;22.90;44.32;101124.06;5100628;28;20039;-79
2022/06/05 00:08:09;;;;;;;0.55;0.55;;;;;;;22.85;43.43;101118.16;5133072;28;20058;-79
2022/06/05 00:10:50;;;;;;;0.98;0.93;;;;;;;22.83;43.14;101120.13;5140372;28;20051;-79
2022/06/05 00:13:40;;;;;;;0.68;0.68;;;;;;;22.83;43.19;101124.59;5135622;28;20045;-81
2022/06/05 00:16:13;;;;;;;0.47;0.47;;;;;;;22.77;43.35;101125.88;5119433;28;20150;-79
2022/06/05 00:18:45;;;;;;;0.73;0.73;;;;;;;22.78;43.53;101124.94;5121752;28;20039;-79
2022/06/05 00:21:19;;;;;;;0.40;0.40;;;;;;;22.67;43.64;101122.19;5109317;28;20080;-80
2022/06/05 00:23:51;;;;;;;0.75;0.75;;;;;;;22.69;43.69;101118.44;5125225;28;20058;-80
2022/06/05 00:26:49;;;;;;;0.60;0.60;;;;;;;22.68;43.35;101113.22;5124720;28;20042;-80
2022/06/05 00:29:20;;;;;;;0.68;0.68;;;;;;;22.68;43.53;101115.88;5121205;28;20035;-80
2022/06/05 00:32:21;;;;;;;0.60;0.60;;;;;;;22.67;43.39;101112.34;5132935;28;20435;-79
2022/06/05 00:34:51;;;;;;;0.50;0.50;;;;;;;22.61;44.03;101108.28;5133298;28;20039;-79
2022/06/05 00:37:41;;;;;;;0.60;0.60;;;;;;;22.49;44.08;101101.16;5127321;28;20717;-79
2022/06/05 00:40:50;;;;;;;0.88;0.88;;;;;;;22.43;44.60;101096.25;5150672;28;20295;-80
2022/06/05 00:43:24;;;;;;;0.40;0.40;;;;;;;22.44;44.18;101095.25;5119585;28;20041;-80
2022/06/05 00:45:56;;;;;;;1.55;0.60;;;;;;;22.38;44.26;101101.91;5141304;28;20050;-80
2022/06/05 00:48:30;;;;;;;0.50;0.50;;;;;;;22.40;44.03;101099.13;5124407;28;20070;-80
2022/06/05 00:51:01;;;;;;;0.90;0.90;;;;;;;22.39;44.17;101092.03;5137642;28;20055;-80
2022/06/05 00:53:32;;;;;;;0.40;0.40;;;;;;;22.40;44.07;101088.44;5122685;28;20054;-79
2022/06/05 00:56:12;;;;;;;0.63;0.63;;;;;;;22.38;44.19;101085.00;5132995;28;20047;-81
2022/06/05 00:58:44;;;;;;;0.50;0.50;;;;;;;22.35;43.95;101070.03;5105269;28;20125;-80
2022/06/05 01:01:14;;;;;;;0.70;0.70;;;;;;;22.34;44.33;101073.66;5139479;28;20105;-80
2022/06/05 01:03:45;;;;;;;0.63;0.63;;;;;;;22.31;44.48;101074.75;5128981;28;20126;-80
2022/06/05 01:06:16;;;;;;;1.23;1.13;;;;;;;22.32;44.39;101076.44;5129498;28;20036;-79
2022/06/05 01:08:46;;;;;;;0.40;0.40;;;;;;;22.27;44.32;101081.25;5129821;28;20035;-80
2022/06/05 01:11:37;;;;;;;10.13;2.10;;;;;;;22.28;44.68;101069.59;5119356;28;20039;-79
2022/06/05 01:14:17;;;;;;;1.30;1.10;;;;;;;22.28;44.62;101074.94;5126506;28;20065;-79
2022/06/05 01:17:14;;;;;;;1.13;0.85;;;;;;;22.24;44.95;101062.78;5094697;28;20063;-80
2022/06/05 01:19:55;;;;;;;0.82;0.82;;;;;;;22.21;44.58;101052.28;5156343;28;20051;-80
2022/06/05 01:22:48;;;;;;;0.35;0.35;;;;;;;22.20;45.01;101050.59;5156343;28;20070;-80
2022/06/05 01:25:47;;;;;;;0.50;0.50;;;;;;;22.17;44.98;101040.13;5122028;28;20077;-80
2022/06/05 01:28:22;;;;;;;0.60;0.60;;;;;;;22.15;44.93;101039.38;5100772;28;20023;-80
2022/06/05 01:31:10;;;;;;;0.50;0.50;;;;;;;22.09;45.15;101032.66;5154246;28;20043;-80
2022/06/05 01:33:53;;;;;;;0.70;0.70;;;;;;;22.08;45.49;101022.91;5109649;28;20051;-80
2022/06/05 01:36:28;;;;;;;0.40;0.40;;;;;;;22.05;45.06;101016.94;5130929;28;20102;-80
2022/06/05 01:39:23;;;;;;;0.77;0.65;;;;;;;22.02;45.49;101010.84;5123744;28;20035;-81
2022/06/05 01:42:06;;;;;;;0.60;0.60;;;;;;;22.00;45.67;101003.91;5140394;28;20269;-80
2022/06/05 01:44:44;;;;;;;0.85;0.85;;;;;;;22.01;45.31;101005.63;5122818;28;20218;-80
2022/06/05 01:47:20;;;;;;;0.55;0.55;;;;;;;21.97;45.40;100996.97;5131857;28;20047;-80
2022/06/05 01:50:01;;;;;;;0.60;0.60;;;;;;;21.93;45.95;100989.28;5145849;28;20039;-81
2022/06/05 01:52:38;;;;;;;2.60;0.60;;;;;;;21.96;45.88;100976.56;5132686;28;20122;-80
2022/06/05 01:55:24;;;;;;;0.55;0.55;;;;;;;21.96;46.28;100981.91;5119813;28;20032;-80
2022/06/05 01:58:00;;;;;;;0.30;0.30;;;;;;;21.94;46.32;100964.28;5121798;28;20388;-80
2022/06/05 02:00:53;;;;;;;0.75;0.75;;;;;;;21.93;46.34;100968.78;5113494;28;20514;-80
2022/06/05 02:03:32;;;;;;;0.75;0.75;;;;;;;21.90;46.25;100974.34;5114583;28;20032;-81
2022/06/05 02:06:29;;;;;;;0.63;0.63;;;;;;;21.91;46.31;100968.03;5112281;28;20070;-80
2022/06/05 02:09:15;;;;;;;0.50;0.50;;;;;;;21.89;46.04;100953.09;5120049;28;20592;-80
2022/06/05 02:11:47;;;;;;;0.60;0.60;;;;;;;21.90;46.19;100950.28;5130062;28;20046;-80
2022/06/05 02:14:17;;;;;;;0.75;0.75;;;;;;;21.88;46.46;100936.19;5133601;28;20042;-80
2022/06/05 02:16:51;;;;;;;1.90;1.00;;;;;;;21.91;46.54;100927.97;5154269;28;20022;-81
2022/06/05 02:19:25;;;;;;;0.80;0.57;;;;;;;21.82;48.08;100920.59;5131843;28;20042;-81
2022/06/05 02:22:04;;;;;;;0.73;0.73;;;;;;;21.78;47.70;100901.28;5143960;28;20041;-81
2022/06/05 02:24:44;;;;;;;1.05;0.98;;;;;;;21.81;47.91;100903.75;5103161;28;20091;-80
2022/06/05 02:27:20;;;;;;;0.55;0.55;;;;;;;21.74;48.43;100905.13;5130445;28;20118;-80
2022/06/05 02:29:53;;;;;;;0.60;0.60;;;;;;;21.70;48.63;100901.81;5133434;28;20045;-80
2022/06/05 02:32:32;;;;;;;1.15;0.77;;;;;;;21.57;49.32;100902.78;5132315;28;20406;-80
2022/06/05 02:35:23;;;;;;;0.63;0.63;;;;;;;21.48;49.10;100885.59;5123534;28;20039;-80
2022/06/05 02:38:06;;;;;;;0.73;0.73;;;;;;;21.32;51.70;100892.00;5119643;28;20042;-80
2022/06/05 02:41:12;;;;;;;0.50;0.50;;;;;;;21.29;51.53;100878.88;5125685;28;20603;-81
2022/06/05 02:46:55;;;;;;;0.75;0.75;;;;;;;21.26;49.94;100867.56;5143437;28;20109;-80
2022/06/05 02:49:34;;;;;;;1.23;1.17;;;;;;;21.15;51.41;100853.19;5137171;28;20035;-80
2022/06/05 02:52:07;;;;;;;0.40;0.40;;;;;;;21.21;49.61;100850.06;5094535;29;20131;-80
2022/06/05 02:54:46;;;;;;;0.60;0.60;;;;;;;21.19;50.03;100848.47;5121476;28;20169;-81
2022/06/05 02:57:20;;;;;;;1.60;1.02;;;;;;;21.13;50.26;100843.56;5130680;28;20027;-80
2022/06/05 02:59:50;;;;;;;1.30;1.20;;;;;;;21.18;48.98;100836.94;5128183;28;20487;-80
2022/06/05 03:05:13;;;;;;;0.68;0.68;;;;;;;21.13;49.30;100836.41;5116087;28;20035;-80
2022/06/05 03:07:46;;;;;;;0.45;0.45;;;;;;;21.00;49.97;100841.75;5137395;28;20050;-80
2022/06/05 03:10:17;;;;;;;1.15;1.05;;;;;;;21.05;49.33;100838.78;5121976;28;20055;-80
2022/06/05 03:12:48;;;;;;;0.68;0.68;;;;;;;21.01;50.33;100835.47;5137582;28;20027;-80
2022/06/05 03:15:18;;;;;;;0.60;0.60;;;;;;;21.04;49.25;100832.56;5137686;28;20054;-80
2022/06/05 03:17:49;;;;;;;0.50;0.50;;;;;;;21.04;49.08;100839.72;5137445;28;20046;-80
2022/06/05 03:20:20;;;;;;;1.40;0.50;;;;;;;21.07;49.55;100842.19;5121867;28;20054;-80
2022/06/05 03:22:51;;;;;;;0.57;0.57;;;;;;;20.99;49.46;100842.72;5112576;28;20035;-80
2022/06/05 03:25:26;;;;;;;0.63;0.63;;;;;;;20.94;50.58;100842.19;5137141;28;20043;-80
2022/06/05 03:27:57;;;;;;;0.65;0.55;;;;;;;20.92;50.45;100838.75;5125488;28;20042;-80
2022/06/05 03:30:30;;;;;;;0.63;0.63;;;;;;;20.88;49.97;100838.13;5115858;28;20043;-80
2022/06/05 03:33:01;;;;;;;1.92;1.33;;;;;;;20.88;50.18;100837.25;5133135;28;20055;-81
2022/06/05 03:35:39;;;;;;;0.80;0.80;;;;;;;20.87;50.05;100833.75;5120736;28;20058;-80
2022/06/05 03:38:11;;;;;;;0.45;0.45;;;;;;;20.87;50.03;100833.75;5127798;28;20153;-79
2022/06/05 03:40:46;;;;;;;0.60;0.60;;;;;;;20.85;49.70;100832.16;5144256;28;20117;-79
2022/06/05 03:43:17;;;;;;;0.80;0.80;;;;;;;20.82;49.51;100829.69;5125349;28;20034;-79
2022/06/05 03:45:47;;;;;;;1.02;1.02;;;;;;;20.80;49.43;100818.25;5142632;28;20070;-79
2022/06/05 03:48:18;;;;;;;0.40;0.40;;;;;;;20.82;49.41;100822.56;5131633;28;20081;-80
2022/06/05 03:50:49;;;;;;;0.50;0.50;;;;;;;20.81;49.33;100825.31;5153243;28;20224;-79
2022/06/05 03:53:22;;;;;;;0.50;0.50;;;;;;;20.81;49.23;100825.31;5142690;28;20027;-79
2022/06/05 03:55:53;;;;;;;0.80;0.80;;;;;;;20.83;49.65;100823.41;5134173;28;20054;-79
2022/06/05 03:58:24;;;;;;;0.43;0.43;;;;;;;20.82;49.26;100832.34;5111748;28;20041;-79
2022/06/05 04:00:54;;;;;;;0.68;0.68;;;;;;;20.82;49.38;100832.34;5113551;28;20069;-80
2022/06/05 04:03:25;;;;;;;0.32;0.32;;;;;;;20.83;49.63;100840.22;5144477;28;20118;-79
2022/06/05 04:05:55;;;;;;;6.97;0.95;;;;;;;20.83;49.35;100837.56;5114145;28;20031;-79
2022/06/05 04:08:31;;;;;;;0.47;0.47;;;;;;;20.85;49.58;100835.66;5103406;28;20555;-79
2022/06/05 04:11:10;;;;;;;0.70;0.70;;;;;;;20.84;49.35;100833.09;5138165;28;20047;-79
2022/06/05 04:13:45;;;;;;;0.40;0.40;;;;;;;20.79;49.78;100828.09;5099463;28;20134;-80
2022/06/05 04:16:24;;;;;;;0.50;0.50;;;;;;;20.83;49.25;100813.56;5113062;28;20090;-80
2022/06/05 04:18:57;;;;;;;0.75;0.75;;;;;;;20.84;49.56;100825.09;5121666;28;20031;-80
2022/06/05 04:21:34;;;;;;;0.40;0.40;;;;;;;20.83;49.41;100828.72;5104452;28;20605;-80
2022/06/05 04:24:11;;;;;;;3.53;0.85;;;;;;;20.85;49.52;100829.47;5110669;28;20117;-80
2022/06/05 04:26:45;;;;;;;0.60;0.60;;;;;;;20.86;49.80;100839.19;5138152;28;20039;-80
2022/06/05 04:29:18;;;;;;;0.52;0.52;;;;;;;20.82;49.76;100843.88;5122321;28;20126;-79
2022/06/05 04:31:49;;;;;;;0.70;0.70;;;;;;;20.84;49.52;100851.78;5130331;28;20136;-80
2022/06/05 04:34:22;;;;;;;0.50;0.50;;;;;;;20.79;49.79;100856.53;5138915;28;20065;-79
2022/06/05 04:36:56;;;;;;;;;;;;;;;20.78;50.59;100854.88;5138011;28;20039;-80
2022/06/05 04:39:26;;;;;;;2.25;2.05;;;;;;;20.77;50.59;100863.81;5123010;28;19918;-80
2022/06/05 04:41:57;;;;;;;0.50;0.50;;;;;;;20.38;54.15;100866.34;5147451;28;20239;-80
2022/06/05 04:44:27;;;;;;;0.47;0.47;;;;;;;20.58;51.34;100873.00;5097331;28;20250;-80
2022/06/05 04:46:58;;;;;;;0.57;0.57;;;;;;;20.63;51.84;100880.72;5122925;28;20045;-80
2022/06/05 04:49:28;;;;;;;0.70;0.70;;;;;;;20.65;51.12;100874.31;5137515;28;20110;-80
2022/06/05 04:52:16;;;;;;;2.70;2.50;;;;;;;20.68;50.73;100883.91;5131441;28;20059;-80
2022/06/05 04:54:47;;;;;;;0.55;0.55;;;;;;;20.73;50.46;100890.69;5133911;28;20133;-80
2022/06/05 04:57:21;;;;;;;0.50;0.50;;;;;;;20.68;50.57;100895.44;5117440;28;20122;-80
2022/06/05 04:59:52;;;;;;;0.50;0.50;;;;;;;20.70;50.71;100895.31;5120356;28;20046;-83
2022/06/05 05:02:22;;;;;;;5.47;1.48;;;;;;;20.71;50.38;100905.03;5103452;29;20035;-83
2022/06/05 05:04:56;;;;;;;0.50;0.50;;;;;;;20.69;51.15;100896.28;5124760;28;20038;-80
2022/06/05 05:07:27;;;;;;;0.90;0.90;;;;;;;20.74;50.93;100895.06;5111981;28;20688;-79
2022/06/05 05:10:01;;;;;;;0.50;0.50;;;;;;;20.75;51.11;100891.44;5123544;28;20038;-79
2022/06/05 05:12:32;;;;;;;0.40;0.40;;;;;;;20.81;50.54;100891.97;5110591;28;20396;-80
2022/06/05 05:15:12;;;;;;;0.57;0.57;;;;;;;20.84;51.00;100887.28;5107459;28;20307;-80
2022/06/05 05:17:45;;;;;;;0.68;0.68;;;;;;;20.88;50.69;100887.91;5121890;28;20118;-80
2022/06/05 05:20:19;;;;;;;0.50;0.50;;;;;;;20.89;50.51;100885.16;5124998;28;20073;-79
2022/06/05 05:22:50;;;;;;;0.50;0.50;;;;;;;20.88;51.46;100885.25;5140644;28;20466;-79
2022/06/05 05:25:26;;;;;;;0.68;0.68;;;;;;;20.97;50.93;100879.28;5134300;28;20051;-80
2022/06/05 05:27:58;;;;;;;1.13;0.50;;;;;;;20.99;50.83;100881.88;5105330;28;20037;-80
2022/06/05 05:30:28;;;;;;;0.50;0.50;;;;;;;20.99;51.79;100874.72;5130807;28;20054;-80
2022/06/05 05:32:59;;;;;;;0.57;0.57;;;;;;;20.94;51.29;100881.31;5122787;28;20110;-80
2022/06/05 05:35:30;;;;;;;0.30;0.30;;;;;;;21.00;51.46;100872.88;5102201;28;20038;-80
2022/06/05 05:38:11;;;;;;;0.40;0.40;;;;;;;21.05;50.50;100866.28;5135721;28;20472;-81
2022/06/05 05:43:34;;;;;;;0.38;0.38;;;;;;;21.06;50.65;100859.16;5127446;28;20047;-80
2022/06/05 05:46:12;;;;;;;0.73;0.73;;;;;;;21.04;51.11;100853.91;5122679;28;20428;-80
2022/06/05 05:48:46;;;;;;;5.50;1.50;;;;;;;21.08;51.06;100849.19;5133625;28;20675;-80
2022/06/05 05:51:17;;;;;;;0.45;0.45;;;;;;;21.20;51.70;100852.81;5136790;28;20043;-80
2022/06/05 05:53:53;;;;;;;0.70;0.63;;;;;;;21.12;51.88;100850.72;5115618;28;20061;-80
2022/06/05 05:56:23;;;;;;;1.65;1.02;;;;;;;21.13;50.97;100840.88;5132082;28;20050;-81
2022/06/05 05:58:54;;;;;;;0.75;0.68;;;;;;;21.16;51.25;100832.69;5120071;28;21113;-81
2022/06/05 06:01:25;;;;;;;0.40;0.40;;;;;;;21.20;50.95;100835.03;5124159;28;20474;-81
2022/06/05 06:03:56;;;;;;;0.30;0.30;;;;;;;21.21;50.31;100833.19;5156514;28;20054;-81
2022/06/05 06:06:30;;;;;;;1.50;0.85;;;;;;;21.19;50.61;100835.13;5144974;28;20039;-80
2022/06/05 06:09:02;;;;;;;0.73;0.73;;;;;;;21.23;50.47;100820.59;5099796;28;20030;-81
2022/06/05 06:11:33;;;;;;;0.97;0.97;;;;;;;21.20;50.31;100821.69;5126114;28;20121;-81
2022/06/05 06:14:10;;;;;;;0.40;0.40;;;;;;;21.26;50.43;100812.41;5099374;29;20353;-81
2022/06/05 06:16:41;;;;;;;0.82;0.82;;;;;;;21.27;51.46;100803.44;5096319;28;20048;-81
2022/06/05 06:19:12;;;;;;;0.70;0.70;;;;;;;21.21;51.92;100817.19;5134484;28;20085;-81
2022/06/05 06:21:43;;;;;;;0.80;0.80;;;;;;;21.29;50.88;100808.66;5115754;28;20066;-81
2022/06/05 06:24:16;;;;;;;0.82;0.82;;;;;;;21.29;51.41;100806.81;5152311;28;20086;-81
2022/06/05 06:26:47;;;;;;;0.50;0.50;;;;;;;21.33;51.21;100799.44;5115372;28;20659;-81
2022/06/05 06:29:17;;;;;;;0.40;0.40;;;;;;;21.34;51.07;100793.16;5105433;28;20093;-81
2022/06/05 06:31:48;;;;;;;1.20;1.02;;;;;;;21.35;50.98;100798.41;5140003;28;20124;-81
2022/06/05 06:34:24;;;;;;;1.55;0.90;;;;;;;21.34;52.15;100783.34;5134638;28;20648;-80
2022/06/05 06:36:57;;;;;;;0.80;0.80;;;;;;;21.40;51.43;100784.72;5104859;28;20435;-80
2022/06/05 06:39:30;;;;;;;0.50;0.50;;;;;;;21.42;51.08;100784.63;5111253;28;20121;-80
2022/06/05 06:42:07;;;;;;;1.15;1.15;;;;;;;21.40;52.73;100768.72;5145694;28;20613;-80
2022/06/05 06:44:38;;;;;;;0.50;0.50;;;;;;;21.44;51.58;100766.69;5104382;28;20031;-80
2022/06/05 06:47:08;;;;;;;0.77;0.77;;;;;;;21.46;51.41;100770.94;5133837;28;20042;-80
2022/06/05 06:49:39;;;;;;;0.55;0.55;;;;;;;21.46;51.49;100764.72;5123277;28;20049;-80
2022/06/05 06:52:10;;;;;;;1.15;1.05;;;;;;;21.48;51.53;100755.66;5111093;28;20296;-80
2022/06/05 06:54:41;;;;;;;1.23;0.80;;;;;;;21.51;51.32;100755.44;5105203;28;20535;-80
2022/06/05 06:57:12;;;;;;;0.60;0.60;;;;;;;21.55;51.40;100756.06;5138711;28;20049;-80
2022/06/05 06:59:43;;;;;;;0.63;0.63;;;;;;;21.52;51.14;100753.63;5126935;28;20122;-80
2022/06/05 07:02:13;;;;;;;1.30;1.20;;;;;;;21.56;51.49;100733.75;5143597;28;20464;-80
2022/06/05 07:04:44;;;;;;;1.52;1.05;;;;;;;21.55;51.59;100734.69;5130498;28;20324;-80
2022/06/05 07:07:15;;;;;;;0.82;0.80;;;;;;;21.58;51.59;100739.84;5143939;28;20067;-80
2022/06/05 07:09:45;;;;;;;1.52;1.42;;;;;;;21.62;51.21;100743.16;5126527;28;20035;-80
2022/06/05 07:12:21;;;;;;;1.13;0.93;;;;;;;21.69;51.40;100736.38;5144590;28;20105;-80
2022/06/05 07:14:51;;;;;;;0.73;0.73;;;;;;;21.68;51.07;100734.69;5141141;28;20033;-81
2022/06/05 07:17:22;;;;;;;0.63;0.50;;;;;;;21.72;50.87;100724.63;5151183;28;20637;-80
2022/06/05 07:19:53;;;;;;;0.70;0.70;;;;;;;21.76;50.99;100726.13;5141605;28;20053;-80
2022/06/05 07:22:31;;;;;;;0.75;0.75;;;;;;;21.82;51.42;100725.66;5130074;28;20110;-80
2022/06/05 07:25:03;;;;;;;1.00;0.95;;;;;;;21.78;52.03;100719.69;5117223;28;20118;-80
2022/06/05 07:27:34;;;;;;;0.47;0.47;;;;;;;21.85;51.46;100726.28;5116330;28;20087;-79
2022/06/05 07:30:09;;;;;;;0.43;0.43;;;;;;;21.89;51.54;100721.56;5118366;28;20274;-80
2022/06/05 07:32:40;;;;;;;0.63;0.63;;;;;;;21.88;52.85;100725.19;5110433;28;20043;-80
2022/06/05 07:35:13;;;;;;;0.80;0.77;;;;;;;21.97;51.79;100721.81;5081153;28;20047;-80
2022/06/05 07:37:46;;;;;;;0.47;0.47;;;;;;;21.97;51.69;100718.31;5101441;28;20035;-80
2022/06/05 07:40:17;;;;;;;;;;;;;;;22.02;51.78;100711.63;5158453;28;20039;-80
2022/06/05 07:42:48;;;;;;;0.52;0.52;;;;;;;22.10;51.00;100718.25;5144033;28;20465;-79
2022/06/05 07:45:18;;;;;;;0.50;0.50;;;;;;;22.11;51.65;100725.25;5125543;28;20516;-81
2022/06/05 07:47:52;;;;;;;0.45;0.45;;;;;;;22.17;51.34;100719.47;5122901;28;20030;-81
2022/06/05 07:50:22;;;;;;;1.02;0.65;;;;;;;22.21;50.86;100722.75;5140448;28;20050;-79
2022/06/05 07:55:42;;;;;;;0.60;0.60;;;;;;;22.31;51.92;100727.28;5127741;28;20070;-81
2022/06/05 07:58:13;;;;;;;0.50;0.50;;;;;;;22.37;51.88;100725.09;5139673;28;20118;-80
2022/06/05 08:00:48;;;;;;;0.95;0.93;;;;;;;22.38;51.81;100738.34;5112336;28;20069;-80
2022/06/05 08:03:21;;;;;;;0.85;0.85;;;;;;;22.41;51.44;100737.31;5111998;28;20070;-81
2022/06/05 08:05:55;;;;;;;0.40;0.40;;;;;;;22.46;51.95;100740.47;5144951;28;20170;-80
2022/06/05 08:08:27;;;;;;;0.47;0.47;;;;;;;22.51;50.66;100734.75;5106927;28;20053;-81
2022/06/05 08:11:10;;;;;;;0.30;0.30;;;;;;;22.50;52.52;100735.72;5116456;28;20047;-80
2022/06/05 08:13:47;;;;;;;0.43;0.43;;;;;;;22.58;51.62;100739.53;5100536;28;20078;-80
2022/06/05 08:16:17;;;;;;;0.70;0.60;;;;;;;22.65;51.67;100745.22;5138444;28;20030;-81
2022/06/05 08:18:52;;;;;;;0.50;0.50;;;;;;;22.75;52.22;100745.38;5138983;28;20031;-81
2022/06/05 08:21:26;;;;;;;0.70;0.70;;;;;;;22.72;51.71;100750.94;5127416;28;20043;-80
2022/06/05 08:23:57;;;;;;;0.50;0.47;;;;;;;22.74;52.65;100754.38;5153932;28;20039;-81
2022/06/05 08:26:27;;;;;;;0.60;0.60;;;;;;;22.64;55.53;100752.41;5103609;28;20043;-80
2022/06/05 08:28:58;;;;;;;0.47;0.47;;;;;;;22.63;52.70;100742.69;5133279;28;20099;-81
2022/06/05 08:31:29;;;;;;;0.60;0.60;;;;;;;22.68;52.68;100744.16;5142673;28;20046;-80
2022/06/05 08:34:04;;;;;;;0.65;0.65;;;;;;;22.62;53.63;100740.97;5134822;28;20035;-81
2022/06/05 08:36:36;;;;;;;0.98;0.98;;;;;;;22.67;52.46;100731.75;5133506;28;20042;-81
2022/06/05 08:42:37;;;;;;;0.68;0.50;;;;;;;22.58;53.02;100736.84;5148547;28;20065;-83
2022/06/05 08:45:18;;;;;;;0.85;0.85;;;;;;;22.63;52.65;100731.16;5117367;28;20054;-79
2022/06/05 08:48:02;;;;;;;0.60;0.60;;;;;;;22.54;54.46;100738.03;5116640;28;20037;-79
2022/06/05 08:51:20;;;;;;;0.65;0.65;;;;;;;22.56;53.35;100737.94;5126505;28;20105;-79
2022/06/05 08:53:55;;;;;;;0.75;0.75;;;;;;;22.59;53.28;100735.00;5128004;28;20046;-80
2022/06/05 08:56:47;;;;;;;0.55;0.55;;;;;;;22.53;52.89;100736.34;5131547;28;20067;-80
2022/06/05 08:59:31;;;;;;;2.03;0.73;;;;;;;22.54;52.32;100743.38;5135327;28;20026;-81
2022/06/05 09:02:32;;;;;;;1.90;0.90;;;;;;;22.51;52.31;100743.66;5117809;28;20053;-81
2022/06/05 09:05:08;;;;;;;0.40;0.40;;;;;;;22.51;52.54;100743.66;5118864;28;20050;-81
2022/06/05 09:07:50;;;;;;;0.30;0.30;;;;;;;22.50;52.64;100749.09;5104225;28;20030;-80
2022/06/05 09:10:45;;;;;;;0.68;0.68;;;;;;;22.45;52.55;100741.44;5128014;28;20053;-81
2022/06/05 09:13:23;;;;;;;0.70;0.68;;;;;;;22.44;52.44;100745.94;5115125;28;20042;-80
2022/06/05 09:15:59;;;;;;;0.50;0.50;;;;;;;22.37;52.75;100751.81;5109272;28;20031;-81
2022/06/05 09:18:35;;;;;;;0.80;0.75;;;;;;;22.36;54.50;100750.97;5103373;28;20129;-81
2022/06/05 09:21:18;;;;;;;1.25;0.98;;;;;;;22.30;53.68;100752.28;5155323;28;20046;-80
2022/06/05 09:24:13;;;;;;;0.65;0.65;;;;;;;22.28;53.85;100746.22;5104210;28;20042;-81
2022/06/05 09:26:48;;;;;;;0.63;0.63;;;;;;;22.29;53.46;100750.59;5136431;28;20031;-80
2022/06/05 09:29:44;;;;;;;0.47;0.47;;;;;;;22.34;54.09;100747.56;5122864;28;20110;-81
2022/06/05 09:32:18;;;;;;;0.50;0.50;;;;;;;22.25;53.94;100745.59;5114190;28;20138;-81
2022/06/05 09:35:13;;;;;;;0.82;0.82;;;;;;;22.26;54.22;100750.84;5106908;28;20085;-80
2022/06/05 09:37:52;;;;;;;0.55;0.55;;;;;;;22.23;54.10;100742.22;5130811;28;20045;-80
2022/06/05 09:40:37;;;;;;;0.85;0.77;;;;;;;22.26;54.09;100739.28;5124560;28;20039;-80
2022/06/05 09:43:17;;;;;;;1.20;1.10;;;;;;;22.25;53.99;100741.13;5115188;28;20086;-80
2022/06/05 09:45:59;;;;;;;0.55;0.55;;;;;;;22.29;54.34;100744.41;5119234;28;20050;-80
2022/06/05 09:49:00;;;;;;;1.60;1.33;;;;;;;22.27;54.38;100738.31;5134427;28;20035;-79
2022/06/05 09:51:35;;;;;;;0.60;0.60;;;;;;;22.35;55.23;100737.75;5125815;28;20062;-80
2022/06/05 09:54:21;;;;;;;1.50;1.40;;;;;;;22.27;57.37;100733.81;5135744;28;20066;-80
2022/06/05 10:00:27;;;;;;;0.70;0.70;;;;;;;22.30;56.20;100733.59;5139805;28;19992;-80
2022/06/05 10:03:12;;;;;;;1.08;0.98;;;;;;;22.35;56.07;100727.06;5127089;28;20070;-80
2022/06/05 10:06:14;;;;;;;0.80;0.80;;;;;;;22.31;55.53;100727.28;5155319;28;20051;-80
2022/06/05 10:08:48;;;;;;;0.50;0.50;;;;;;;22.40;56.36;100730.25;5117396;28;20130;-81
2022/06/05 10:11:40;;;;;;;1.45;0.70;;;;;;;22.37;56.64;100719.75;5134810;28;20078;-79
2022/06/05 10:14:42;;;;;;;0.63;0.63;;;;;;;22.37;57.85;100717.06;5120998;28;20637;-80
2022/06/05 10:17:31;;;;;;;0.73;0.73;;;;;;;22.39;56.31;100708.03;5113567;28;20045;-80
2022/06/05 10:20:04;;;;;;;0.52;0.52;;;;;;;22.38;55.95;100710.75;5146393;28;20273;-80
2022/06/05 10:22:38;;;;;;;1.92;1.10;;;;;;;22.40;56.51;100701.69;5146684;28;20038;-80
2022/06/05 10:25:15;;;;;;;0.68;0.68;;;;;;;22.43;56.59;100703.28;5163007;28;20046;-80
2022/06/05 10:27:59;;;;;;;1.50;1.40;;;;;;;22.41;56.72;100710.56;5107198;28;20050;-80
2022/06/05 10:30:36;;;;;;;0.88;0.50;;;;;;;22.49;56.49;100697.47;5114226;28;20039;-80
2022/06/05 10:33:23;;;;;;;0.93;0.80;;;;;;;22.52;56.20;100693.69;5138209;28;20035;-80
2022/06/05 10:36:01;;;;;;;0.70;0.65;;;;;;;22.54;56.99;100695.25;5112324;28;20047;-81
2022/06/05 10:38:46;;;;;;;1.42;1.10;;;;;;;22.54;57.19;100687.25;5141657;28;20094;-80
2022/06/05 10:41:33;;;;;;;0.60;0.60;;;;;;;22.59;57.87;100690.44;5116105;28;20046;-80
2022/06/05 10:44:20;;;;;;;0.90;0.85;;;;;;;22.60;58.36;100692.09;5099436;28;20055;-80
2022/06/05 10:47:12;;;;;;;0.63;0.63;;;;;;;22.52;60.59;100699.03;5127901;28;20039;-81
2022/06/05 10:50:03;;;;;;;5.85;1.90;;;;;;;22.67;58.34;100694.31;5134075;28;20483;-80
2022/06/05 10:52:42;;;;;;;1.33;1.20;;;;;;;22.67;57.11;100691.66;5133903;28;20043;-81
2022/06/05 10:55:40;;;;;;;0.95;0.95;;;;;;;22.72;59.48;100676.06;5140228;28;20504;-80
2022/06/05 10:58:42;;;;;;;0.50;0.50;;;;;;;22.73;58.04;100683.97;5116793;28;20039;-81
2022/06/05 11:01:28;;;;;;;0.50;0.50;;;;;;;22.54;60.26;100673.88;5147870;28;20193;-80
2022/06/05 11:04:24;;;;;;;0.70;0.70;;;;;;;22.61;58.42;100669.75;5130064;28;20038;-81
2022/06/05 11:07:21;;;;;;;0.65;0.63;;;;;;;22.55;58.04;100666.72;5132128;28;20783;-80
2022/06/05 11:10:02;;;;;;;0.95;0.80;;;;;;;22.58;58.84;100658.44;5111745;28;20106;-81
2022/06/05 11:15:39;;;;;;;0.60;0.60;;;;;;;22.59;57.92;100650.31;5153789;28;20046;-81
2022/06/05 11:18:35;;;;;;;1.08;0.93;;;;;;;22.53;57.54;100640.09;5120036;28;20054;-80
2022/06/05 11:21:10;;;;;;;1.00;0.75;;;;;;;22.54;57.04;100633.78;5111776;29;20046;-81
2022/06/05 11:23:42;;;;;;;0.47;0.47;;;;;;;22.57;56.96;100628.19;5127992;28;20031;-80
2022/06/05 11:26:31;;;;;;;1.45;1.15;;;;;;;22.55;58.36;100624.78;5139020;28;20035;-80
2022/06/05 11:29:14;;;;;;;0.98;0.98;;;;;;;22.53;57.58;100615.19;5109783;28;20046;-80
2022/06/05 11:31:54;;;;;;;0.73;0.70;;;;;;;22.51;57.68;100601.09;5120326;28;20050;-81
2022/06/05 11:34:37;;;;;;;2.72;1.83;;;;;;;22.52;58.93;100600.13;5108577;28;20043;-80
2022/06/05 11:37:16;;;;;;;0.40;0.40;;;;;;;22.55;57.48;100582.00;5140262;28;20039;-80
2022/06/05 11:40:21;;;;;;;0.75;0.75;;;;;;;22.53;59.79;100570.56;5141145;28;20026;-81
2022/06/05 11:42:51;;;;;;;1.63;1.52;;;;;;;22.55;62.44;100557.94;5137145;28;20046;-80
2022/06/05 11:45:59;;;;;;;0.75;0.75;;;;;;;22.75;60.25;100567.03;5122449;28;20035;-80
2022/06/05 11:48:44;;;;;;;0.80;0.75;;;;;;;22.81;60.29;100562.16;5123174;28;20035;-80
2022/06/05 11:51:24;;;;;;;0.37;0.37;;;;;;;22.83;59.73;100555.72;5135606;28;20467;-80
2022/06/05 11:54:07;;;;;;;0.60;0.60;;;;;;;22.91;59.50;100563.97;5156834;28;20027;-81
2022/06/05 11:57:25;;;;;;;1.55;1.45;;;;;;;23.02;58.75;100559.53;5132387;28;20105;-81
2022/06/05 12:00:02;;;;;;;0.57;0.57;;;;;;;23.07;59.95;100554.66;5158844;28;20042;-81
2022/06/05 12:02:54;;;;;;;0.77;0.63;;;;;;;23.18;59.40;100553.81;5117305;28;20047;-80
2022/06/05 12:05:54;;;;;;;0.45;0.45;;;;;;;23.22;60.14;100550.75;5135749;28;20295;-82
2022/06/05 12:08:39;;;;;;;1.45;0.95;;;;;;;23.19;60.74;100545.63;5129253;28;20057;-81
2022/06/05 12:11:13;;;;;;;1.25;0.82;;;;;;;23.27;59.63;100537.81;5101957;28;20053;-82
2022/06/05 12:14:11;;;;;;;1.23;0.73;;;;;;;23.32;61.98;100532.06;5128905;28;20066;-81
2022/06/05 12:16:51;;;;;;;1.15;1.15;;;;;;;23.31;61.84;100537.56;5140303;28;20039;-81
2022/06/05 12:19:49;;;;;;;0.85;0.85;;;;;;;23.43;59.25;100520.47;5146285;28;20038;-82
2022/06/05 12:22:55;;;;;;;0.68;0.68;;;;;;;23.48;59.61;100520.06;5118669;28;20678;-81
2022/06/05 12:25:58;;;;;;;0.82;0.50;;;;;;;23.36;62.52;100528.19;5147128;28;20034;-83
2022/06/05 12:28:45;;;;;;;0.73;0.73;;;;;;;23.61;59.40;100522.56;5103522;28;20451;-82
2022/06/05 12:31:18;;;;;;;0.88;0.88;;;;;;;23.67;58.92;100516.69;5129237;28;20055;-82
2022/06/05 12:34:00;;;;;;;1.30;0.50;;;;;;;23.70;59.05;100506.56;5119869;28;20042;-82
2022/06/05 12:36:40;;;;;;;1.65;0.75;;;;;;;23.76;58.89;100497.13;5140655;28;20957;-82
2022/06/05 12:39:23;;;;;;;0.73;0.73;;;;;;;23.81;58.89;100497.59;5122516;28;20077;-82
2022/06/05 12:42:12;;;;;;;0.60;0.60;;;;;;;23.92;58.57;100493.13;5122332;28;20043;-84